createdAt,value
2019-03-30T00:01:19.414Z,16.40
2019-03-30T00:03:47.793Z,16.05
2019-03-30T00:06:15.074Z,17.15
2019-03-30T00:08:42.402Z,15.13
2019-03-30T00:11:09.439Z,16.82
2019-03-30T00:13:36.494Z,17.35
2019-03-30T00:16:03.531Z,16.05
2019-03-30T00:18:30.579Z,15.93
2019-03-30T00:20:57.617Z,15.85
2019-03-30T00:23:24.666Z,17.23
2019-03-30T00:25:52.681Z,17.02
2019-03-30T00:28:19.736Z,17.67
2019-03-30T00:30:46.783Z,16.55
2019-03-30T00:33:14.797Z,16.93
2019-03-30T00:35:41.834Z,16.70
2019-03-30T00:38:08.892Z,15.80
2019-03-30T00:40:35.932Z,16.65
2019-03-30T00:43:03.336Z,17.80
2019-03-30T00:45:30.618Z,16.67
2019-03-30T00:47:57.658Z,16.55
2019-03-30T00:50:24.714Z,16.73
2019-03-30T00:52:51.747Z,16.82
2019-03-30T00:55:18.799Z,17.42
2019-03-30T00:57:45.839Z,16.60
2019-03-30T01:00:12.898Z,16.07
2019-03-30T01:02:39.930Z,17.77
2019-03-30T01:05:06.982Z,17.42
2019-03-30T01:07:34.326Z,16.45
2019-03-30T01:10:02.453Z,17.98
2019-03-30T01:12:29.490Z,16.90
2019-03-30T01:14:56.794Z,16.95
2019-03-30T01:17:25.066Z,17.17
2019-03-30T01:20:02.672Z,16.70
2019-03-30T01:22:21.120Z,16.42
2019-03-30T01:24:48.179Z,16.85
2019-03-30T01:27:15.459Z,17.30
2019-03-30T01:29:42.505Z,17.87
2019-03-30T01:32:09.539Z,16.30
2019-03-30T01:34:36.589Z,16.32
2019-03-30T01:37:03.877Z,17.00
2019-03-30T01:39:30.920Z,17.70
2019-03-30T01:41:57.952Z,17.85
2019-03-30T01:44:25.000Z,16.93
2019-03-30T01:46:52.282Z,18.27
2019-03-30T01:49:19.336Z,17.42
2019-03-30T01:51:46.621Z,17.52
2019-03-30T01:54:13.934Z,17.48
2019-03-30T01:56:40.974Z,17.73
2019-03-30T01:59:08.021Z,18.80
2019-03-30T02:01:35.060Z,17.42
2019-03-30T02:04:02.105Z,17.70
2019-03-30T02:06:29.137Z,16.93
2019-03-30T02:08:56.187Z,16.97
2019-03-30T02:11:23.224Z,16.32
2019-03-30T02:13:50.268Z,16.90
2019-03-30T02:16:17.623Z,15.85
2019-03-30T02:18:44.934Z,17.25
2019-03-30T02:21:11.969Z,16.42
2019-03-30T02:23:39.011Z,16.32
2019-03-30T02:26:06.311Z,17.32
2019-03-30T02:28:33.348Z,16.70
2019-03-30T02:31:00.402Z,17.07
2019-03-30T02:33:27.698Z,17.70
2019-03-30T02:35:54.735Z,17.25
2019-03-30T02:38:21.772Z,16.25
2019-03-30T02:40:48.827Z,16.77
2019-03-30T02:43:16.132Z,16.42
2019-03-30T02:45:43.179Z,17.12
2019-03-30T02:48:10.462Z,17.62
2019-03-30T02:50:49.541Z,16.20
2019-03-30T02:53:06.239Z,16.80
2019-03-30T02:55:33.532Z,17.42
2019-03-30T02:58:00.812Z,17.27
2019-03-30T03:00:28.102Z,15.30
2019-03-30T03:02:55.135Z,16.12
2019-03-30T03:05:22.182Z,15.70
2019-03-30T03:07:49.289Z,14.78
2019-03-30T03:10:16.340Z,16.37
2019-03-30T03:12:43.631Z,17.73
2019-03-30T03:15:10.928Z,16.82
2019-03-30T03:17:38.218Z,16.57
2019-03-30T03:20:05.374Z,16.52
2019-03-30T03:22:32.631Z,18.57
2019-03-30T03:24:59.678Z,17.02
2019-03-30T03:27:26.732Z,16.52
2019-03-30T03:29:54.179Z,17.00
2019-03-30T03:32:21.469Z,17.90
2019-03-30T03:34:48.864Z,18.35
2019-03-30T03:37:15.899Z,18.42
2019-03-30T03:39:42.948Z,17.45
2019-03-30T03:42:10.316Z,21.23
2019-03-30T03:44:37.369Z,20.75
2019-03-30T03:47:04.396Z,21.25
2019-03-30T03:49:31.787Z,21.45
2019-03-30T03:51:59.139Z,21.70
2019-03-30T03:54:26.172Z,17.98
2019-03-30T03:56:53.456Z,17.27
2019-03-30T03:59:20.777Z,18.55
2019-03-30T04:01:48.068Z,17.87
2019-03-30T04:04:15.110Z,18.27
2019-03-30T04:06:42.160Z,18.25
2019-03-30T04:09:09.485Z,16.97
2019-03-30T04:11:36.831Z,18.00
2019-03-30T04:14:04.187Z,18.90
2019-03-30T04:16:31.236Z,19.35
2019-03-30T04:18:58.613Z,19.00
2019-03-30T04:21:42.425Z,21.65
2019-03-30T04:23:54.943Z,22.52
2019-03-30T04:26:22.089Z,19.95
2019-03-30T04:28:49.442Z,19.45
2019-03-30T04:31:16.507Z,19.50
2019-03-30T04:33:43.863Z,18.75
2019-03-30T04:36:11.204Z,20.37
2019-03-30T04:38:38.567Z,20.60
2019-03-30T04:41:05.859Z,19.45
2019-03-30T04:43:32.982Z,19.10
2019-03-30T04:46:00.333Z,18.80
2019-03-30T04:48:29.499Z,19.00
2019-03-30T04:50:56.457Z,18.98
2019-03-30T04:53:23.495Z,20.35
2019-03-30T04:55:50.865Z,17.60
2019-03-30T04:58:18.221Z,19.82
2019-03-30T05:00:45.593Z,20.80
2019-03-30T05:03:12.926Z,19.80
2019-03-30T05:05:43.002Z,18.77
2019-03-30T05:08:09.303Z,18.98
2019-03-30T05:10:36.348Z,21.00
2019-03-30T05:13:03.697Z,19.90
2019-03-30T05:15:30.734Z,19.87
2019-03-30T05:17:57.786Z,19.85
2019-03-30T05:20:25.079Z,19.55
2019-03-30T05:22:52.501Z,17.85
2019-03-30T05:25:20.769Z,18.90
2019-03-30T05:27:47.815Z,19.82
2019-03-30T05:30:14.856Z,19.05
2019-03-30T05:32:42.130Z,18.00
2019-03-30T05:35:09.617Z,18.82
2019-03-30T05:37:37.801Z,18.52
2019-03-30T05:40:05.099Z,20.27
2019-03-30T05:42:32.658Z,20.92
2019-03-30T05:45:00.030Z,19.98
2019-03-30T05:47:27.376Z,20.43
2019-03-30T05:49:54.722Z,19.60
2019-03-30T05:52:26.781Z,20.08
2019-03-30T05:54:50.872Z,19.12
2019-03-30T05:57:18.224Z,19.15
2019-03-30T05:59:45.272Z,19.17
2019-03-30T06:02:12.624Z,19.87
2019-03-30T06:04:39.906Z,18.75
2019-03-30T06:07:11.270Z,20.10
2019-03-30T06:09:38.302Z,19.70
2019-03-30T06:12:05.373Z,18.60
2019-03-30T06:14:32.682Z,19.15
2019-03-30T06:16:59.731Z,19.45
2019-03-30T06:19:27.083Z,19.50
2019-03-30T06:21:54.141Z,19.27
2019-03-30T06:24:21.487Z,19.90
2019-03-30T06:26:49.885Z,19.55
2019-03-30T06:29:16.927Z,20.72
2019-03-30T06:31:46.878Z,20.65
2019-03-30T06:34:13.364Z,20.15
2019-03-30T06:36:40.733Z,21.15
2019-03-30T06:39:12.993Z,19.50
2019-03-30T06:41:40.041Z,20.48
2019-03-30T06:44:07.390Z,22.30
2019-03-30T06:46:34.750Z,20.37
2019-03-30T06:49:02.041Z,21.20
2019-03-30T06:51:29.075Z,21.68
2019-03-30T06:53:56.127Z,22.20
2019-03-30T06:56:23.223Z,21.20
2019-03-30T06:58:50.223Z,19.80
2019-03-30T07:01:17.258Z,20.88
2019-03-30T07:03:44.596Z,20.62
2019-03-30T07:06:11.885Z,22.82
2019-03-30T07:08:39.198Z,23.15
2019-03-30T07:11:20.218Z,21.85
2019-03-30T07:13:35.258Z,19.57
2019-03-30T07:16:02.300Z,20.12
2019-03-30T07:18:29.647Z,20.70
2019-03-30T07:20:57.004Z,19.37
2019-03-30T07:23:24.056Z,19.65
2019-03-30T07:25:51.409Z,19.40
2019-03-30T07:28:18.457Z,18.90
2019-03-30T07:30:45.822Z,18.75
2019-03-30T07:33:13.181Z,18.95
2019-03-30T07:35:41.540Z,18.65
2019-03-30T07:38:08.599Z,18.70
2019-03-30T07:40:35.943Z,18.30
2019-03-30T07:43:03.315Z,18.02
2019-03-30T07:45:40.998Z,17.67
2019-03-30T07:48:08.055Z,18.55
2019-03-30T07:50:35.419Z,19.12
2019-03-30T07:53:02.765Z,17.10
2019-03-30T07:55:30.052Z,17.73
2019-03-30T07:57:57.134Z,16.90
2019-03-30T08:00:30.452Z,18.60
2019-03-30T08:02:53.608Z,16.93
2019-03-30T08:05:20.962Z,17.92
2019-03-30T08:07:48.004Z,17.55
2019-03-30T08:10:15.062Z,17.80
2019-03-30T08:12:42.099Z,18.07
2019-03-30T08:15:09.466Z,16.85
2019-03-30T08:17:36.835Z,16.45
2019-03-30T08:20:04.172Z,16.55
2019-03-30T08:22:31.527Z,18.32
2019-03-30T08:24:58.881Z,16.90
2019-03-30T08:27:27.263Z,17.90
2019-03-30T08:29:54.315Z,16.32
2019-03-30T08:32:22.585Z,17.02
2019-03-30T08:34:49.643Z,16.82
2019-03-30T08:37:16.947Z,16.17
2019-03-30T08:39:44.002Z,16.50
2019-03-30T08:45:05.606Z,16.80
2019-03-30T08:47:32.636Z,17.48
2019-03-30T08:49:59.999Z,17.32
2019-03-30T08:52:27.335Z,16.55
2019-03-30T08:54:54.389Z,16.60
2019-03-30T08:57:21.446Z,15.98
2019-03-30T08:59:48.503Z,16.45
2019-03-30T09:02:15.542Z,14.45
2019-03-30T09:04:42.600Z,15.93
2019-03-30T09:07:09.935Z,15.93
2019-03-30T09:09:36.994Z,15.98
2019-03-30T09:12:04.356Z,14.18
2019-03-30T09:14:31.665Z,18.85
2019-03-30T09:16:59.062Z,16.10
2019-03-30T09:19:26.399Z,16.00
2019-03-30T09:21:53.751Z,17.25
2019-03-30T09:24:20.806Z,15.55
2019-03-30T09:26:48.159Z,14.15
2019-03-30T09:29:15.527Z,14.75
2019-03-30T09:31:42.574Z,15.25
2019-03-30T09:34:09.929Z,15.45
2019-03-30T09:36:37.420Z,15.60
2019-03-30T09:39:04.847Z,15.08
2019-03-30T09:41:31.910Z,13.75
2019-03-30T09:43:59.230Z,15.45
2019-03-30T09:46:26.295Z,13.55
2019-03-30T09:48:53.343Z,14.50
2019-03-30T09:51:20.683Z,13.55
2019-03-30T09:53:48.038Z,14.47
2019-03-30T09:56:15.413Z,12.45
2019-03-30T09:58:42.446Z,12.33
2019-03-30T10:03:52.203Z,11.33
2019-03-30T10:06:19.262Z,13.35
2019-03-30T10:08:46.301Z,12.80
2019-03-30T10:11:13.657Z,13.32
2019-03-30T10:13:41.011Z,13.32
2019-03-30T10:16:08.364Z,11.85
2019-03-30T10:18:36.374Z,12.85
2019-03-30T10:21:03.434Z,12.35
2019-03-30T10:23:30.741Z,11.18
2019-03-30T10:25:57.794Z,11.33
2019-03-30T10:28:25.082Z,12.82
2019-03-30T10:30:52.191Z,12.20
2019-03-30T10:33:20.058Z,11.43
2019-03-30T10:35:47.411Z,11.00
2019-03-30T10:38:14.458Z,12.78
2019-03-30T10:40:41.816Z,11.73
2019-03-30T10:43:09.170Z,11.78
2019-03-30T10:45:36.527Z,13.50
2019-03-30T10:48:04.904Z,12.10
2019-03-30T10:50:32.258Z,12.93
2019-03-30T10:52:59.314Z,11.78
2019-03-30T10:55:26.361Z,12.53
2019-03-30T10:57:53.656Z,12.40
2019-03-30T11:00:20.982Z,13.55
2019-03-30T11:02:48.319Z,13.22
2019-03-30T11:05:15.672Z,12.78
2019-03-30T11:07:43.031Z,13.15
2019-03-30T11:10:10.382Z,13.05
2019-03-30T11:12:37.738Z,11.75
2019-03-30T11:15:05.091Z,12.25
2019-03-30T11:17:38.387Z,12.50
2019-03-30T11:20:05.431Z,12.60
2019-03-30T11:22:32.713Z,13.53
2019-03-30T11:25:07.501Z,12.78
2019-03-30T11:27:29.757Z,11.80
2019-03-30T11:29:56.789Z,11.57
2019-03-30T11:32:24.154Z,11.65
2019-03-30T11:34:51.510Z,10.85
2019-03-30T11:37:21.124Z,10.80
2019-03-30T11:39:48.414Z,10.23
2019-03-30T11:42:15.833Z,10.55
2019-03-30T11:44:43.207Z,9.98
2019-03-30T11:47:10.559Z,10.18
2019-03-30T11:49:37.896Z,10.38
2019-03-30T11:52:04.958Z,10.38
2019-03-30T11:54:31.994Z,9.75
2019-03-30T11:56:59.579Z,10.10
2019-03-30T11:59:27.209Z,9.30
2019-03-30T12:01:54.570Z,10.25
2019-03-30T12:04:22.860Z,10.10
2019-03-30T12:06:51.788Z,9.58
2019-03-30T12:09:18.992Z,8.50
2019-03-30T12:11:46.166Z,10.08
2019-03-30T12:14:13.306Z,10.00
2019-03-30T12:16:40.357Z,10.10
2019-03-30T12:19:07.421Z,9.93
2019-03-30T12:21:34.460Z,8.65
2019-03-30T12:24:01.529Z,8.98
2019-03-30T12:26:28.827Z,9.48
2019-03-30T12:28:55.886Z,8.63
2019-03-30T12:31:22.940Z,8.15
2019-03-30T12:33:50.010Z,7.37
2019-03-30T12:36:17.044Z,8.08
2019-03-30T12:38:44.121Z,8.00
2019-03-30T12:41:11.161Z,7.62
2019-03-30T12:43:39.162Z,7.58
2019-03-30T12:46:09.304Z,8.60
2019-03-30T12:48:36.368Z,7.67
2019-03-30T12:51:03.734Z,7.53
2019-03-30T12:53:30.796Z,7.75
2019-03-30T12:55:58.123Z,7.72
2019-03-30T13:01:07.509Z,8.10
2019-03-30T13:03:36.725Z,6.87
2019-03-30T13:06:06.163Z,8.18
2019-03-30T13:08:36.039Z,8.33
2019-03-30T13:11:04.345Z,7.87
2019-03-30T13:13:32.806Z,7.42
2019-03-30T13:16:01.166Z,8.23
2019-03-30T13:18:28.436Z,8.18
2019-03-30T13:20:55.507Z,8.15
2019-03-30T13:26:03.539Z,8.33
2019-03-30T13:28:25.393Z,9.15
2019-03-30T13:30:59.187Z,8.65
2019-03-30T13:36:23.710Z,8.90
2019-03-30T13:38:55.043Z,8.18
2019-03-30T13:41:30.402Z,8.93
2019-03-30T13:43:57.590Z,8.23
2019-03-30T13:46:25.840Z,8.10
2019-03-30T13:48:55.057Z,8.63
2019-03-30T13:51:24.232Z,8.88
2019-03-30T13:53:51.559Z,8.28
2019-03-30T14:01:41.852Z,8.33
2019-03-30T14:04:12.164Z,8.23
2019-03-30T14:06:40.118Z,7.55
2019-03-30T14:09:08.349Z,8.33
2019-03-30T14:11:40.185Z,7.65
2019-03-30T14:14:07.551Z,7.58
2019-03-30T14:16:41.878Z,7.33
2019-03-30T14:19:10.151Z,6.15
2019-03-30T14:21:42.155Z,7.25
2019-03-30T14:24:10.378Z,6.75
2019-03-30T14:26:40.937Z,7.35
2019-03-30T14:31:42.654Z,6.47
2019-03-30T14:34:09.922Z,7.45
2019-03-30T14:36:37.343Z,8.03
2019-03-30T14:39:08.586Z,7.28
2019-03-30T14:41:36.782Z,7.72
2019-03-30T14:57:23.303Z,7.37
2019-03-30T14:59:52.743Z,7.62
2019-03-30T15:10:46.731Z,8.35
2019-03-30T15:16:07.247Z,7.37
2019-03-30T15:18:42.829Z,7.58
2019-03-30T15:21:10.048Z,7.87
2019-03-30T15:23:42.587Z,6.97
2019-03-30T15:28:58.230Z,7.17
2019-03-30T15:34:11.525Z,7.33
2019-03-30T15:36:42.924Z,7.00
2019-03-30T15:39:22.543Z,7.47
2019-03-30T15:44:29.004Z,7.28
2019-03-30T15:46:59.917Z,7.90
2019-03-30T15:49:29.167Z,7.28
2019-03-30T15:54:48.988Z,6.80
2019-03-30T15:57:16.613Z,6.90
2019-03-30T15:59:44.725Z,7.28
2019-03-30T16:04:49.768Z,5.62
2019-03-30T16:07:21.837Z,6.42
2019-03-30T16:12:42.961Z,6.65
2019-03-30T16:17:56.102Z,6.70
2019-03-30T16:20:23.353Z,5.40
2019-03-30T16:22:54.246Z,6.12
2019-03-30T16:25:28.874Z,5.97
2019-03-30T16:27:56.328Z,5.37
2019-03-30T16:33:11.024Z,5.65
2019-03-30T16:35:38.367Z,6.10
2019-03-30T16:38:05.823Z,6.40
2019-03-30T16:40:32.871Z,6.67
2019-03-30T16:43:02.377Z,6.42
2019-03-30T16:45:30.577Z,6.85
2019-03-30T16:48:01.950Z,6.00
2019-03-30T16:50:32.149Z,6.83
2019-03-30T16:55:40.554Z,6.47
2019-03-30T16:58:08.775Z,6.37
2019-03-30T17:00:55.632Z,7.65
2019-03-30T17:03:12.242Z,7.67
2019-03-30T17:05:43.631Z,8.38
2019-03-30T17:11:03.906Z,7.90
2019-03-30T17:13:31.359Z,7.90
2019-03-30T17:16:00.592Z,7.65
2019-03-30T17:18:33.958Z,7.80
2019-03-30T17:21:01.139Z,8.15
2019-03-30T17:23:29.331Z,7.80
2019-03-30T17:26:02.706Z,10.03
2019-03-30T17:33:36.415Z,9.78
2019-03-30T17:36:09.338Z,9.18
2019-03-30T17:41:09.846Z,9.55
2019-03-30T17:46:15.151Z,10.43
2019-03-30T17:48:42.214Z,9.00
2019-03-30T17:51:18.298Z,8.78
2019-03-30T17:53:47.821Z,9.25
2019-03-30T17:56:16.319Z,9.30
2019-03-30T17:58:44.788Z,8.78
2019-03-30T18:01:15.755Z,9.38
2019-03-30T18:03:43.949Z,9.00
2019-03-30T18:06:11.866Z,9.43
2019-03-30T18:08:43.982Z,9.33
2019-03-30T18:11:13.438Z,9.98
2019-03-30T18:13:44.478Z,9.33
2019-03-30T18:16:11.835Z,9.63
2019-03-30T18:18:42.115Z,9.33
2019-03-30T18:21:20.675Z,9.65
2019-03-30T18:23:49.940Z,9.18
2019-03-30T18:26:18.183Z,9.13
2019-03-30T18:28:47.398Z,8.73
2019-03-30T18:31:15.320Z,9.15
2019-03-30T18:33:43.537Z,9.03
2019-03-30T18:36:11.581Z,8.68
2019-03-30T18:38:39.020Z,8.95
2019-03-30T18:41:06.200Z,9.50
2019-03-30T18:43:33.473Z,9.15
2019-03-30T18:46:06.390Z,9.53
2019-03-30T18:48:37.981Z,9.80
2019-03-30T18:51:06.448Z,9.83
2019-03-30T18:53:34.115Z,9.30
2019-03-30T18:56:02.610Z,9.13
2019-03-30T18:58:41.045Z,8.95
2019-03-30T19:00:59.591Z,9.55
2019-03-30T19:03:26.926Z,8.73
2019-03-30T19:05:53.967Z,10.70
2019-03-30T19:08:21.542Z,9.30
2019-03-30T19:10:48.874Z,9.98
2019-03-30T19:13:16.249Z,10.35
2019-03-30T19:15:43.580Z,10.23
2019-03-30T19:18:11.898Z,10.43
2019-03-30T19:20:39.284Z,9.58
2019-03-30T19:23:13.671Z,9.38
2019-03-30T19:25:45.709Z,10.32
2019-03-30T19:28:14.939Z,10.03
2019-03-30T19:30:43.140Z,9.85
2019-03-30T19:33:15.368Z,9.78
2019-03-30T19:35:44.598Z,10.13
2019-03-30T19:38:11.637Z,9.23
2019-03-30T19:40:39.810Z,9.73
2019-03-30T19:43:16.753Z,9.35
2019-03-30T19:45:45.065Z,9.35
2019-03-30T19:48:18.730Z,9.23
2019-03-30T19:50:46.185Z,9.98
2019-03-30T19:53:13.949Z,10.05
2019-03-30T19:55:41.145Z,9.35
2019-03-30T19:58:09.093Z,10.05
2019-03-30T20:00:38.694Z,9.28
2019-03-30T20:03:06.520Z,9.38
2019-03-30T20:05:35.679Z,8.70
2019-03-30T20:08:11.966Z,9.00
2019-03-30T20:10:34.616Z,10.08
2019-03-30T20:13:15.138Z,9.00
2019-03-30T20:15:42.417Z,9.03
2019-03-30T20:18:10.685Z,10.75
2019-03-30T20:20:37.942Z,9.38
2019-03-30T20:23:08.730Z,9.83
2019-03-30T20:25:38.135Z,9.98
2019-03-30T20:28:23.105Z,9.43
2019-03-30T20:33:23.870Z,9.10
2019-03-30T20:35:53.104Z,8.65
2019-03-30T20:38:20.405Z,9.05
2019-03-30T20:45:52.235Z,8.90
2019-03-30T20:48:26.829Z,7.60
2019-03-30T20:50:57.527Z,8.85
2019-03-30T20:53:38.345Z,8.28
2019-03-30T20:56:05.787Z,8.95
2019-03-30T20:58:43.382Z,9.18
2019-03-30T21:01:10.582Z,8.90
2019-03-30T21:03:44.042Z,8.38
2019-03-30T21:06:16.021Z,9.65
2019-03-30T21:08:43.177Z,9.93
2019-03-30T21:11:10.446Z,9.48
2019-03-30T21:13:44.233Z,10.28
2019-03-30T21:16:12.422Z,10.15
2019-03-30T21:18:44.681Z,10.78
2019-03-30T21:21:13.894Z,10.63
2019-03-30T21:23:41.204Z,9.35
2019-03-30T21:26:08.558Z,10.15
2019-03-30T21:28:36.128Z,10.05
2019-03-30T21:31:03.168Z,9.38
2019-03-30T21:33:30.626Z,10.32
2019-03-30T21:35:57.977Z,9.88
2019-03-30T21:38:25.333Z,9.55
2019-03-30T21:40:52.387Z,10.28
2019-03-30T21:43:19.950Z,9.93
2019-03-30T21:45:47.301Z,9.70
2019-03-30T21:48:14.338Z,9.23
2019-03-30T21:50:41.388Z,9.40
2019-03-30T21:53:08.425Z,9.23
2019-03-30T21:55:35.793Z,9.20
2019-03-30T21:58:02.863Z,9.98
2019-03-30T22:00:30.220Z,9.13
2019-03-30T22:02:57.554Z,8.53
2019-03-30T22:05:24.611Z,8.25
2019-03-30T22:07:51.959Z,8.88
2019-03-30T22:10:19.009Z,9.68
2019-03-30T22:12:46.054Z,8.85
2019-03-30T22:15:13.411Z,8.98
2019-03-30T22:17:40.782Z,8.33
2019-03-30T22:20:08.119Z,9.53
2019-03-30T22:22:35.190Z,8.95
2019-03-30T22:25:02.245Z,10.40
2019-03-30T22:27:29.288Z,9.48
2019-03-30T22:29:56.440Z,10.30
2019-03-30T22:32:23.489Z,9.28
2019-03-30T22:34:50.813Z,9.85
2019-03-30T22:37:18.170Z,8.95
2019-03-30T22:39:45.212Z,9.28
2019-03-30T22:42:12.264Z,9.00
2019-03-30T22:44:39.304Z,9.05
2019-03-30T22:47:06.670Z,9.50
2019-03-30T22:49:33.958Z,9.10
2019-03-30T22:52:01.005Z,9.35
2019-03-30T22:54:28.343Z,8.35
2019-03-30T22:56:55.685Z,8.70
2019-03-30T22:59:23.054Z,9.40
2019-03-30T23:01:50.106Z,8.58
2019-03-30T23:04:17.439Z,9.53
2019-03-30T23:06:46.751Z,9.25
2019-03-30T23:09:27.033Z,8.83
2019-03-30T23:11:54.370Z,9.38
2019-03-30T23:14:33.845Z,9.30
2019-03-30T23:17:01.086Z,9.15
2019-03-30T23:19:34.360Z,9.63
2019-03-30T23:22:06.448Z,9.65
2019-03-30T23:24:33.757Z,9.55
2019-03-30T23:27:04.178Z,10.23
2019-03-30T23:29:31.539Z,9.75
2019-03-30T23:31:58.892Z,8.85
2019-03-30T23:34:26.177Z,9.65
2019-03-30T23:36:53.502Z,9.38
2019-03-30T23:39:20.791Z,10.00
2019-03-30T23:41:48.126Z,9.50
2019-03-30T23:44:15.466Z,8.65
2019-03-30T23:46:42.821Z,9.35
2019-03-30T23:49:11.169Z,8.65
2019-03-30T23:51:38.468Z,9.23
2019-03-30T23:54:05.761Z,8.93
2019-03-30T23:56:33.065Z,8.80
2019-03-30T23:59:00.355Z,8.35
